Baker, OR

1:57 PM PDT on August 30, 2014 (GMT -0700)
Baker City Municipal | Change Station
CLOSE
Current Station
Airport
Location: Baker,
Elevation: 3373 ft
Nearby Weather Stations

Elev 3373 ft 44.84 °N, 117.81 °W | Updated 1 hour ago

Scattered Clouds
Scattered Clouds
68 °F
Feels Like 68 °F
N
4
Wind Variable Wind from Variable

Today
High -- | Low -- °F
--% Chance of Precip.
Yesterday
High -- | Low -- °F
Precip. -- in
6:11 AM 7:31 PM
Waxing Crescent, 24% visible
Pressure 29.88 in
Visibility 10.0 miles
Clouds Scattered Clouds 10000 ft
Dew Point 45 °F
Humidity 43%
Rainfall 0.00 in
Snow Depth 1 in
UV 7 out of 12
Pollen 6.20 out of 12
Air Quality Not available.
Flu Activity Not available.
METAR KBKE 301953Z AUTO VRB03KT 10SM SCT100 20/07 A2994 RMK AO2 SLP119 T02000072 TSNO $

More Conditions Fewer Conditions

Pressure 29.88 in
Visibility 10.0 miles
Clouds Scattered Clouds 10000 ft
Dew Point 45 °F
Humidity 43%
Rainfall 0.00 in
Snow Depth 1 in
UV 7 out of 12
Pollen 6.20 out of 12
Air Quality Not available.
Flu Activity Not available.
METAR KBKE 301953Z AUTO VRB03KT 10SM SCT100 20/07 A2994 RMK AO2 SLP119 T02000072 TSNO $

More Conditions Fewer Conditions

10-Day Weather Forecast

Almanac

Astronomy

Aug. 30, 2014 Rise Set
Actual Time 6:11 AM PDT 7:31 PM PDT
Civil Twilight 5:41 AM PDT 8:01 PM PDT
Nautical Twilight 5:04 AM PDT 8:38 PM PDT
Astronomical Twilight 4:25 AM PDT 9:16 PM PDT
Moon 11:17 AM PDT 9:54 PM PDT
Length of Visible Light 14h 20m
Length of Day
13h 20m
Tomorrow will be 2m 59s shorter.
Waxing Crescent, 24% of the Moon is Illuminated
Today
Waxing Crescent
Sep 2
First Quarter
Sep 8
Full
Sep 15
Last Quarter
Sep 24
New

Today's Extremes

State Highs State Lows

Community

WunderPhotos

Upload Photos

1,748,624 photos uploaded!

WunderBlogs® & News

Nearby

Snow Depth

Station Depth Elevation
Bourne 1 in 5800 ft
Tipton 0 in 5150 ft
Schneider Meadows 0 in 5400 ft
Mt. Howard 0 in 7910 ft
Blue Mountain Spring 0 in 5900 ft

Earthquake Activity

City Distance Mag. Time & Date
No recent earthquake activity has been reported nearby.
Minimum magnitude displayed is 2.5.

Coastal Water Temperatures

Place Temperature
No Stations Reporting

Nearby Weather Stations